Pagrindinis puslapis
METAR-TAF:

METAR-TAF

Oro uostai :

Batervortas, Malaizija

platuma: 05-27-58N, ilguma: 100-23-28E, Aukštis: 2 m

Dabartinis oras

Ataskaita buvo paskelbta 1 valandą ir 10 minutes, ne 20:00 UTC
Vėjas 3 kt nuo kintamojo kryptimis
Temperatūra 26°C
Drėgmė 94%
Slėgis 1010 hPa
Matomumas: 7000 m
Mažai debesys ne aukštis 2400 ft
Išsisklaidę debesys ne aukštis 14000 ft
Su prošvaistėmis ne aukštis 28000 ft

METAR: WMKB 172000Z VRB03KT 7000 FEW024 SCT140 BKN280 26/25 Q1010 NOSIG

Laikas: 05:10 (21:10 UTC)

Prognozė

Ataskaita buvo paskelbta 4 valandos ir 10 minutes, ne 17:00 UTC
Prognozė galioja nuo 17 metu 18 UTC su 18 metu 18 UTC
Vėjas 3 kt nuo kintamojo kryptimis
Matomumas: 8000 m
Mažai debesys ne aukštis 2400 ft
Tapsmas
nuo 18 metu 04 UTC su 18 metu 06 UTC
Vėjas 10 kt iš Pietvakarių
Tapsmas
nuo 18 metu 12 UTC su 18 metu 14 UTC
Vėjas 3 kt nuo kintamojo kryptimis

TAF: WMKB 171700Z 1718/1818 VRB03KT 8000 FEW024 BECMG 1804/1806 22010KT BECMG 1812/1814 VRB03KT

Orai ataskaitas ir orų prognozės (METAR, TAF).

turimą stotys yra geltonos ir raudonos taškus žemėlapyje.

Perkelti pele per norėdami pamatyti stoties vardą.

Tada spustelėkite, norėdami matyti oro stebėjimo ir prognozės.

Norėdami pakeisti žemėlapį: spustelėkite ant žalios mygtukų su juodo kryžiaus žemyn,; žalią mygtuką su brūkšneliu, jei norite nutolinti; arba žalių rodyklių gretimoms žemėlapius.


METAR-TAF: